createdAt,value
2022-10-17T00:00:46.259Z,5.60
2022-10-17T00:03:13.408Z,4.25
2022-10-17T00:05:46.262Z,5.33
2022-10-17T00:08:15.234Z,4.63
2022-10-17T00:10:43.196Z,4.57
2022-10-17T00:13:10.637Z,4.18
2022-10-17T00:15:37.760Z,4.85
2022-10-17T00:18:04.891Z,4.50
2022-10-17T00:20:34.679Z,5.53
2022-10-17T00:23:01.632Z,4.72
2022-10-17T00:25:28.431Z,4.78
2022-10-17T00:27:55.188Z,4.18
2022-10-17T00:30:22.397Z,4.67
2022-10-17T00:32:49.353Z,5.10
2022-10-17T00:35:16.278Z,4.68
2022-10-17T00:37:43.334Z,4.53
2022-10-17T00:40:10.754Z,3.92
2022-10-17T00:42:37.713Z,4.00
2022-10-17T00:45:13.299Z,3.75
2022-10-17T00:47:40.916Z,3.83
2022-10-17T00:50:08.869Z,4.53
2022-10-17T00:52:36.768Z,4.15
2022-10-17T00:55:14.993Z,3.63
2022-10-17T00:57:43.187Z,3.97
2022-10-17T01:00:11.529Z,4.90
2022-10-17T01:02:38.593Z,3.50
2022-10-17T01:05:07.616Z,3.40
2022-10-17T01:07:37.220Z,2.93
2022-10-17T01:10:05.659Z,3.42
2022-10-17T01:13:20.406Z,3.53
2022-10-17T01:15:49.875Z,3.22
2022-10-17T01:18:41.292Z,4.32
2022-10-17T01:21:26.340Z,3.60
2022-10-17T01:24:35.245Z,3.90
2022-10-17T01:27:04.968Z,3.10
2022-10-17T01:29:52.996Z,3.95
2022-10-17T01:32:49.598Z,4.05
2022-10-17T06:18:37.440Z,5.72
2022-10-17T06:21:06.919Z,5.22
2022-10-17T06:23:34.057Z,5.95
2022-10-17T06:26:01.978Z,5.43
2022-10-17T06:28:29.235Z,5.43
2022-10-17T06:30:56.018Z,6.40
2022-10-17T06:33:23.760Z,5.05
2022-10-17T06:35:57.540Z,4.43
2022-10-17T06:38:24.837Z,4.97
2022-10-17T06:40:52.239Z,5.47
2022-10-17T06:43:19.072Z,4.88
2022-10-17T06:45:46.621Z,4.75
2022-10-17T06:48:13.598Z,5.40
2022-10-17T06:50:41.088Z,4.90
2022-10-17T06:53:08.175Z,6.35
2022-10-17T06:55:35.272Z,5.25
2022-10-17T06:58:02.198Z,5.15
2022-10-17T07:00:29.437Z,5.28
2022-10-17T07:02:56.218Z,4.70
2022-10-17T07:05:23.111Z,6.28
2022-10-17T07:07:51.074Z,5.18
2022-10-17T07:10:19.211Z,5.80
2022-10-17T07:12:46.137Z,5.90
2022-10-17T07:15:13.642Z,6.23
2022-10-17T07:17:40.810Z,5.60
2022-10-17T07:20:08.759Z,6.20
2022-10-17T07:22:36.640Z,5.85
2022-10-17T07:25:04.035Z,5.93
2022-10-17T07:27:31.151Z,6.50
2022-10-17T07:29:58.279Z,5.25
2022-10-17T07:32:25.110Z,5.70
2022-10-17T07:34:51.937Z,5.38
2022-10-17T07:37:19.045Z,5.70
2022-10-17T07:39:46.197Z,5.47
2022-10-17T07:42:12.915Z,5.28
2022-10-17T07:44:40.531Z,5.40
2022-10-17T07:47:07.565Z,5.63
2022-10-17T07:49:34.531Z,4.90
2022-10-17T07:52:01.471Z,5.00
2022-10-17T07:54:28.206Z,4.97
2022-10-17T07:56:55.819Z,5.30
2022-10-17T07:59:24.797Z,5.90
2022-10-17T08:01:51.685Z,6.35
2022-10-17T08:04:18.493Z,5.43
2022-10-17T08:06:45.460Z,5.20
2022-10-17T08:09:12.487Z,5.20
2022-10-17T08:11:39.760Z,5.68
2022-10-17T08:14:07.600Z,5.05
2022-10-17T08:16:35.094Z,5.07
2022-10-17T08:19:02.476Z,6.03
2022-10-17T08:21:29.794Z,5.07
2022-10-17T08:23:57.060Z,5.63
2022-10-17T08:26:23.899Z,5.50
2022-10-17T08:28:50.985Z,5.80
2022-10-17T08:31:19.688Z,6.05
2022-10-17T08:33:48.671Z,5.40
2022-10-17T08:36:19.981Z,6.22
2022-10-17T08:38:52.403Z,5.45
2022-10-17T08:41:39.435Z,5.33
2022-10-17T08:44:24.074Z,5.82
2022-10-17T08:46:54.052Z,5.28
2022-10-17T08:49:45.565Z,5.30
2022-10-17T08:52:29.413Z,5.57
2022-10-17T08:54:56.295Z,5.57
2022-10-17T08:57:23.337Z,5.65
2022-10-17T08:59:52.615Z,5.65
2022-10-17T09:02:45.003Z,6.88
2022-10-17T09:05:44.460Z,6.18
2022-10-17T09:08:16.883Z,4.97
2022-10-17T09:10:52.949Z,5.07
2022-10-17T09:13:44.776Z,5.15
2022-10-17T09:16:37.243Z,4.93
2022-10-17T09:19:18.392Z,5.13
2022-10-17T09:22:03.918Z,4.63
2022-10-17T09:24:46.675Z,4.47
2022-10-17T09:27:23.414Z,4.00
2022-10-17T09:30:01.676Z,4.97
2022-10-17T09:32:29.499Z,4.38
2022-10-17T09:34:56.536Z,4.17
2022-10-17T09:37:31.240Z,4.15
2022-10-17T09:39:58.464Z,4.10
2022-10-17T09:42:27.305Z,4.47
2022-10-17T09:45:16.568Z,4.18
2022-10-17T09:47:57.586Z,4.03
2022-10-17T09:50:29.395Z,3.67
2022-10-17T09:53:00.765Z,4.07
2022-10-17T09:55:30.817Z,4.85
2022-10-17T09:58:03.551Z,4.18
2022-10-17T10:00:42.172Z,4.73
2022-10-17T10:03:23.446Z,3.65
2022-10-17T10:06:03.005Z,3.60
2022-10-17T10:08:53.438Z,3.33
2022-10-17T10:11:26.557Z,5.00
2022-10-17T10:13:53.577Z,2.60
2022-10-17T10:16:32.154Z,2.90
2022-10-17T10:18:59.618Z,2.40
2022-10-17T10:21:28.054Z,2.30
2022-10-17T10:24:10.176Z,2.28
2022-10-17T10:26:49.008Z,2.10
2022-10-17T10:29:23.236Z,2.03
2022-10-17T10:31:51.272Z,2.35
2022-10-17T10:34:19.979Z,2.05
2022-10-17T10:37:01.517Z,2.63
2022-10-17T10:39:33.609Z,2.13
2022-10-17T10:42:03.838Z,2.50
2022-10-17T10:44:33.596Z,2.00
2022-10-17T10:47:28.987Z,2.28
2022-10-17T10:50:21.511Z,2.22
2022-10-17T10:52:54.898Z,2.60
2022-10-17T10:55:33.635Z,2.45
2022-10-17T10:58:15.554Z,2.72
2022-10-17T11:00:43.403Z,2.30
2022-10-17T11:03:20.799Z,2.13
2022-10-17T11:05:56.280Z,1.97
2022-10-17T11:08:46.394Z,2.03
2022-10-17T11:11:37.572Z,2.28
2022-10-17T11:14:17.859Z,2.33
2022-10-17T11:16:56.614Z,2.35
2022-10-17T11:19:35.522Z,2.60
2022-10-17T11:22:02.492Z,2.75
2022-10-17T11:24:36.153Z,2.33
2022-10-17T11:27:08.671Z,2.20
2022-10-17T11:29:38.617Z,2.60
2022-10-17T11:32:18.457Z,2.50
2022-10-17T11:34:53.238Z,2.63
2022-10-17T11:37:26.749Z,2.65
2022-10-17T11:40:02.602Z,2.40
2022-10-17T11:43:00.837Z,2.80
2022-10-17T11:45:34.046Z,2.07
2022-10-17T11:48:12.973Z,2.47
2022-10-17T11:53:51.910Z,1.70
2022-10-17T11:56:29.999Z,2.03
2022-10-17T11:59:23.093Z,1.87
2022-10-17T12:01:57.517Z,1.75
2022-10-17T12:05:03.838Z,2.00
2022-10-17T12:07:46.879Z,1.90
2022-10-17T12:10:48.886Z,1.63
2022-10-17T12:13:28.088Z,1.73
2022-10-17T12:16:18.276Z,1.80
2022-10-17T12:18:46.485Z,2.00
2022-10-17T12:21:13.394Z,1.95
2022-10-17T12:23:40.835Z,1.73
2022-10-17T12:26:10.578Z,1.63
2022-10-17T12:28:37.298Z,2.00
2022-10-17T12:31:08.839Z,1.80
2022-10-17T12:33:53.689Z,1.90
2022-10-17T12:36:20.536Z,1.83
2022-10-17T12:38:50.480Z,2.00
2022-10-17T12:41:38.045Z,1.85
2022-10-17T12:44:14.518Z,1.85
2022-10-17T12:46:48.235Z,2.00
2022-10-17T12:49:42.560Z,2.33
2022-10-17T12:52:22.232Z,2.20
2022-10-17T12:55:00.599Z,2.13
2022-10-17T12:57:55.968Z,2.42
2022-10-17T13:00:26.406Z,1.63
2022-10-17T13:02:57.716Z,2.42
2022-10-17T13:05:31.771Z,2.60
2022-10-17T13:08:01.649Z,2.20
2022-10-17T13:10:32.533Z,2.40
2022-10-17T13:13:14.715Z,2.67
2022-10-17T13:15:46.884Z,2.38
2022-10-17T13:18:21.147Z,2.23
2022-10-17T13:21:00.653Z,2.10
2022-10-17T13:23:32.397Z,2.10
2022-10-17T13:26:24.728Z,1.80
2022-10-17T13:29:12.236Z,1.92
2022-10-17T13:31:41.731Z,2.17
2022-10-17T13:34:20.959Z,2.40
2022-10-17T13:36:51.086Z,2.25
2022-10-17T13:39:32.549Z,2.20
2022-10-17T13:42:31.064Z,2.80
2022-10-17T13:44:59.964Z,2.53
2022-10-17T13:47:31.247Z,2.22
2022-10-17T13:49:59.318Z,2.38
2022-10-17T13:52:30.204Z,2.80
2022-10-17T13:55:09.693Z,3.13
2022-10-17T13:57:36.919Z,2.70
2022-10-17T14:00:15.674Z,2.05
2022-10-17T14:02:43.793Z,2.88
2022-10-17T14:05:18.330Z,2.72
2022-10-17T14:08:13.501Z,2.40
2022-10-17T14:10:43.439Z,2.60
2022-10-17T14:16:23.518Z,2.67
2022-10-17T14:18:52.358Z,2.58
2022-10-17T14:21:43.360Z,2.97
2022-10-17T14:24:23.318Z,2.70
2022-10-17T14:26:58.676Z,3.50
2022-10-17T14:29:28.949Z,3.08
2022-10-17T14:32:05.669Z,2.63
2022-10-17T14:34:37.229Z,2.97
2022-10-17T14:37:24.649Z,2.53
2022-10-17T14:39:52.116Z,3.40
2022-10-17T14:42:23.203Z,2.90
2022-10-17T14:44:52.099Z,2.78
2022-10-17T14:47:42.723Z,2.60
2022-10-17T14:50:12.976Z,3.10
2022-10-17T14:52:40.078Z,2.70
2022-10-17T14:55:23.632Z,2.75
2022-10-17T14:57:50.837Z,2.55
2022-10-17T15:00:20.269Z,2.72
2022-10-17T15:02:48.296Z,3.77
2022-10-17T15:05:16.326Z,4.00
2022-10-17T15:07:43.874Z,3.25
2022-10-17T15:10:26.236Z,4.03
2022-10-17T15:12:59.178Z,3.13
2022-10-17T15:15:32.717Z,2.97
2022-10-17T15:18:00.168Z,2.80
2022-10-17T15:20:28.393Z,2.65
2022-10-17T15:22:56.452Z,2.70
2022-10-17T15:25:25.194Z,2.90
2022-10-17T15:27:52.914Z,4.63
2022-10-17T15:30:22.234Z,3.95
2022-10-17T15:32:50.393Z,3.05
2022-10-17T15:35:17.855Z,2.83
2022-10-17T15:37:45.396Z,2.53
2022-10-17T15:40:24.045Z,2.43
2022-10-17T15:42:52.127Z,2.85
2022-10-17T15:45:20.628Z,2.80
2022-10-17T15:48:00.932Z,2.90
2022-10-17T15:50:27.685Z,2.58
2022-10-17T15:52:54.394Z,2.67
2022-10-17T15:55:21.633Z,4.40
2022-10-17T15:57:49.632Z,4.70
2022-10-17T16:00:22.722Z,2.80
2022-10-17T16:02:50.481Z,2.83
2022-10-17T16:05:20.780Z,2.60
2022-10-17T16:07:47.829Z,2.58
2022-10-17T16:10:15.554Z,3.08
2022-10-17T16:12:42.811Z,2.85
2022-10-17T16:15:15.739Z,3.05
2022-10-17T16:17:42.769Z,4.80
2022-10-17T16:20:11.416Z,4.32
2022-10-17T16:22:39.227Z,2.65
2022-10-17T16:25:16.456Z,2.50
2022-10-17T16:27:43.413Z,2.97
2022-10-17T16:30:10.502Z,3.03
2022-10-17T16:32:37.420Z,3.03
2022-10-17T16:35:05.795Z,2.92
2022-10-17T16:37:33.423Z,2.97
2022-10-17T16:40:00.305Z,4.10
2022-10-17T16:42:27.563Z,2.80
2022-10-17T16:44:54.504Z,3.20
2022-10-17T16:47:21.316Z,2.58
2022-10-17T16:49:48.314Z,4.95
2022-10-17T16:52:15.221Z,4.10
2022-10-17T16:54:42.300Z,3.80
2022-10-17T16:57:09.416Z,3.92
2022-10-17T16:59:36.348Z,4.22
2022-10-17T17:02:03.372Z,7.35
2022-10-17T17:04:30.571Z,5.80
2022-10-17T17:06:57.503Z,6.87
2022-10-17T17:09:24.549Z,5.90
2022-10-17T17:11:51.575Z,5.03
2022-10-17T17:14:20.094Z,4.75
2022-10-17T17:16:47.421Z,5.13
2022-10-17T17:19:16.178Z,5.57
2022-10-17T17:21:43.738Z,3.88
2022-10-17T17:24:10.573Z,4.90
2022-10-17T17:26:37.492Z,10.57
2022-10-17T17:29:04.958Z,4.47
2022-10-17T17:31:34.293Z,6.33
2022-10-17T17:34:01.751Z,9.60
2022-10-17T17:36:34.186Z,8.32
2022-10-17T17:39:03.759Z,9.27
2022-10-17T17:41:31.397Z,6.78
2022-10-17T17:43:58.546Z,4.93
2022-10-17T17:46:26.261Z,5.25
2022-10-17T17:48:55.355Z,4.38
2022-10-17T17:51:28.355Z,4.40
2022-10-17T17:53:57.979Z,4.95
2022-10-17T17:56:28.906Z,4.93
2022-10-17T17:59:01.374Z,4.95
2022-10-17T18:01:30.755Z,3.70
2022-10-17T18:03:59.092Z,3.53
2022-10-17T18:06:27.057Z,3.28
2022-10-17T18:08:56.419Z,3.20
2022-10-17T18:11:23.954Z,3.75
2022-10-17T18:13:58.951Z,8.65
2022-10-17T18:16:28.830Z,4.35
2022-10-17T18:18:56.138Z,4.00
2022-10-17T18:21:23.678Z,3.47
2022-10-17T18:23:50.738Z,4.10
2022-10-17T18:26:17.974Z,6.25
2022-10-17T18:28:45.825Z,4.47
2022-10-17T18:31:22.453Z,4.05
2022-10-17T18:33:51.977Z,4.20
2022-10-17T18:36:19.392Z,3.72
2022-10-17T18:38:46.301Z,4.25
2022-10-17T18:41:16.233Z,3.88
2022-10-17T18:43:45.138Z,6.30
2022-10-17T18:46:24.533Z,5.17
2022-10-17T18:48:51.941Z,4.40
2022-10-17T18:51:21.985Z,3.53
2022-10-17T18:53:51.575Z,3.80
2022-10-17T18:56:19.536Z,4.10
2022-10-17T18:58:46.950Z,3.40
2022-10-17T19:01:17.134Z,3.70
2022-10-17T19:03:46.667Z,5.20
2022-10-17T19:06:16.100Z,4.75
2022-10-17T19:08:44.314Z,4.13
2022-10-17T19:11:16.457Z,3.80
2022-10-17T19:16:16.132Z,3.70
2022-10-17T19:18:44.056Z,12.70
2022-10-17T19:21:12.315Z,6.38
2022-10-17T19:23:39.417Z,4.03
2022-10-17T19:26:08.899Z,4.50
2022-10-17T19:28:37.217Z,5.88
2022-10-17T19:31:06.026Z,8.18
2022-10-17T19:33:34.394Z,5.90
2022-10-17T19:36:04.661Z,4.90
2022-10-17T19:38:31.782Z,5.00
2022-10-17T19:43:25.589Z,6.43
2022-10-17T19:46:01.531Z,3.40
2022-10-17T19:48:32.184Z,3.80
2022-10-17T19:50:59.700Z,3.50
2022-10-17T19:53:26.877Z,3.58
2022-10-17T19:55:54.313Z,3.47
2022-10-17T19:58:21.262Z,5.63
2022-10-17T20:00:55.349Z,6.40
2022-10-17T20:03:22.256Z,3.67
2022-10-17T20:05:49.296Z,3.75
2022-10-17T20:08:17.208Z,3.70
2022-10-17T20:10:44.107Z,3.00
2022-10-17T20:13:11.216Z,3.00
2022-10-17T20:15:38.578Z,3.08
2022-10-17T20:18:06.588Z,3.63
2022-10-17T20:20:37.459Z,3.53
2022-10-17T20:23:05.182Z,3.63
2022-10-17T20:25:32.422Z,3.87
2022-10-17T20:27:59.382Z,4.60
2022-10-17T20:30:27.176Z,6.60
2022-10-17T20:32:55.756Z,4.40
2022-10-17T20:35:23.100Z,3.60
2022-10-17T20:37:50.785Z,3.43
2022-10-17T20:40:34.174Z,3.83
2022-10-17T20:43:02.799Z,3.45
2022-10-17T20:45:43.823Z,4.72
2022-10-17T20:48:19.815Z,4.50
2022-10-17T20:50:46.811Z,3.80
2022-10-17T20:56:09.440Z,2.80
2022-10-17T20:58:36.658Z,3.25
2022-10-17T21:01:08.899Z,3.20
2022-10-17T21:03:39.827Z,3.47
2022-10-17T21:06:10.233Z,3.83
2022-10-17T21:08:38.098Z,3.20
2022-10-17T21:11:15.593Z,3.50
2022-10-17T21:13:42.992Z,3.38
2022-10-17T21:16:15.811Z,4.03
2022-10-17T21:18:43.489Z,4.10
2022-10-17T21:21:17.209Z,4.38
2022-10-17T21:23:45.956Z,2.88
2022-10-17T21:26:13.979Z,3.03
2022-10-17T21:28:42.030Z,3.10
2022-10-17T21:31:26.776Z,4.68
2022-10-17T21:33:57.631Z,4.72
2022-10-17T21:36:26.108Z,3.60
2022-10-17T21:38:54.985Z,3.75
2022-10-17T21:41:24.295Z,3.43
2022-10-17T21:43:58.182Z,3.47
2022-10-17T21:46:25.709Z,3.05
2022-10-17T21:48:53.632Z,3.80
2022-10-17T21:51:23.614Z,4.07
2022-10-17T21:53:52.296Z,5.03
2022-10-17T21:56:21.975Z,3.20
2022-10-17T21:58:50.539Z,3.25
2022-10-17T22:01:33.139Z,2.95
2022-10-17T22:04:04.210Z,3.08
2022-10-17T22:06:39.701Z,2.90
2022-10-17T22:09:12.818Z,3.00
2022-10-17T22:11:40.107Z,3.45
2022-10-17T22:14:11.795Z,2.88
2022-10-17T22:16:39.714Z,2.95
2022-10-17T22:19:08.058Z,4.13
2022-10-17T22:21:36.837Z,4.70
2022-10-17T22:24:07.465Z,5.25
2022-10-17T22:26:36.170Z,4.45
2022-10-17T22:29:04.927Z,5.20
2022-10-17T22:31:32.415Z,4.70
2022-10-17T22:33:59.700Z,6.22
2022-10-17T22:36:26.543Z,6.47
2022-10-17T22:38:53.540Z,7.18
2022-10-17T22:41:20.757Z,7.75
2022-10-17T22:43:47.849Z,7.20
2022-10-17T22:46:15.773Z,5.95
2022-10-17T22:48:42.981Z,5.95
2022-10-17T22:51:10.631Z,6.03
2022-10-17T22:53:37.978Z,6.10
2022-10-17T22:56:11.702Z,6.90
2022-10-17T22:58:38.947Z,6.53
2022-10-17T23:01:07.882Z,7.43
2022-10-17T23:03:35.535Z,7.00
2022-10-17T23:06:03.052Z,6.25
2022-10-17T23:08:30.428Z,5.23
2022-10-17T23:10:57.943Z,5.95
2022-10-17T23:13:24.822Z,4.95
2022-10-17T23:15:53.514Z,4.53
2022-10-17T23:18:21.569Z,4.05
2022-10-17T23:20:49.131Z,4.50
2022-10-17T23:23:16.541Z,4.30
2022-10-17T23:25:43.716Z,4.40
2022-10-17T23:28:10.713Z,4.00
2022-10-17T23:30:38.554Z,4.47
2022-10-17T23:33:06.169Z,4.60
2022-10-17T23:35:33.920Z,4.88
2022-10-17T23:38:01.452Z,4.93
2022-10-17T23:40:28.498Z,4.20
2022-10-17T23:42:55.372Z,5.25
2022-10-17T23:45:22.974Z,3.83
2022-10-17T23:47:50.255Z,4.60
2022-10-17T23:50:17.180Z,5.18
2022-10-17T23:52:44.458Z,5.38
2022-10-17T23:55:11.611Z,5.25
2022-10-17T23:57:38.458Z,4.33
